Time;durP1;ratioP1;P1;durP2;ratioP2;P2;SDS_P1;SDS_P2;PMS_P1;PMS_P2;Temp;Humidity;BMP_temperature;BMP_pressure;BME280_temperature;BME280_humidity;BME280_pressure;Samples;Min_cycle;Max_cycle;Signal;HPM_P1;HPM_P2
2022/06/19 00:01:46;;;;;;;10.70;2.60;;;20.50;91.10;;;;;;5071474;28;20177;-85
2022/06/19 00:04:12;;;;;;;10.30;3.10;;;20.40;90.50;;;;;;5062121;28;20192;-86
2022/06/19 00:06:39;;;;;;;13.27;3.43;;;20.40;90.70;;;;;;5062072;28;20268;-86
2022/06/19 00:09:05;;;;;;;14.10;2.60;;;20.30;90.90;;;;;;5063126;28;20197;-85
2022/06/19 00:11:33;;;;;;;8.57;2.50;;;20.10;91.00;;;;;;5066862;28;20200;-86
2022/06/19 00:13:59;;;;;;;8.67;2.70;;;20.20;91.10;;;;;;5066554;28;20170;-85
2022/06/19 00:16:25;;;;;;;14.40;3.03;;;20.30;91.00;;;;;;5067310;28;20205;-86
2022/06/19 00:18:51;;;;;;;10.47;2.70;;;;;;;;;;5065109;28;20194;-86
2022/06/19 00:21:17;;;;;;;12.10;3.37;;;20.20;92.00;;;;;;5065722;28;20166;-86
2022/06/19 00:23:44;;;;;;;11.80;3.23;;;20.10;92.10;;;;;;5066049;28;20216;-86
2022/06/19 00:26:10;;;;;;;9.90;2.90;;;;;;;;;;5066383;28;20178;-86
2022/06/19 00:28:36;;;;;;;10.03;2.73;;;20.00;92.00;;;;;;5067979;28;20174;-86
2022/06/19 00:31:01;;;;;;;10.73;3.30;;;19.90;92.00;;;;;;5067526;28;20208;-86
2022/06/19 00:33:27;;;;;;;9.60;2.43;;;;;;;;;;5066713;28;20181;-86
2022/06/19 00:35:53;;;;;;;11.23;2.77;;;;;;;;;;5068486;28;20203;-85
2022/06/19 00:38:19;;;;;;;15.07;2.67;;;19.80;92.20;;;;;;5062452;28;20584;-86
2022/06/19 00:40:45;;;;;;;11.43;2.70;;;;;;;;;;5062782;28;20265;-86
2022/06/19 00:43:11;;;;;;;17.57;3.30;;;19.70;92.60;;;;;;5061792;28;20191;-86
2022/06/19 00:45:51;;;;;;;12.07;2.60;;;19.80;93.00;;;;;;5061094;28;20245;-86
2022/06/19 00:48:37;;;;;;;15.23;3.47;;;19.70;93.10;;;;;;5061984;28;20180;-85
2022/06/19 00:51:05;;;;;;;8.20;2.60;;;19.70;92.90;;;;;;5066909;28;20193;-85
2022/06/19 00:53:57;;;;;;;14.73;2.73;;;19.70;93.10;;;;;;5077987;28;20177;-86
2022/06/19 00:56:25;;;;;;;10.13;3.30;;;19.60;93.10;;;;;;5069281;28;20224;-86
2022/06/19 00:58:52;;;;;;;8.90;2.90;;;19.60;92.90;;;;;;5065627;28;20192;-86
2022/06/19 01:01:22;;;;;;;13.43;3.20;;;19.60;92.90;;;;;;5064499;28;20670;-86
2022/06/19 01:03:53;;;;;;;12.40;3.10;;;19.60;93.00;;;;;;5064802;28;20185;-86
2022/06/19 01:06:21;;;;;;;9.20;2.70;;;19.70;92.70;;;;;;5065454;28;20178;-86
2022/06/19 01:08:47;;;;;;;12.63;2.93;;;19.70;92.70;;;;;;5066438;28;20169;-86
2022/06/19 01:11:17;;;;;;;9.27;3.13;;;19.70;93.00;;;;;;5065670;28;20178;-86
2022/06/19 01:13:43;;;;;;;10.20;3.37;;;19.70;92.80;;;;;;5066589;28;20185;-86
2022/06/19 01:16:10;;;;;;;17.80;3.30;;;19.70;93.10;;;;;;5065358;28;20209;-86
2022/06/19 01:18:37;;;;;;;8.30;3.37;;;19.60;92.90;;;;;;5067737;28;20178;-86
2022/06/19 01:21:32;;;;;;;13.57;3.33;;;19.60;93.20;;;;;;5065686;28;20546;-86
2022/06/19 01:24:10;;;;;;;12.47;2.93;;;19.60;93.50;;;;;;5057819;28;20182;-86
2022/06/19 01:26:41;;;;;;;17.53;4.20;;;19.60;93.60;;;;;;5068695;28;20657;-86
2022/06/19 01:29:08;;;;;;;11.60;2.80;;;19.50;93.60;;;;;;5073290;28;20213;-85
2022/06/19 01:31:44;;;;;;;7.17;2.90;;;19.50;93.50;;;;;;5079117;28;20177;-85
2022/06/19 01:34:27;;;;;;;9.03;3.67;;;19.50;93.70;;;;;;5070719;28;20173;-86
2022/06/19 01:37:21;;;;;;;11.07;3.20;;;19.40;93.80;;;;;;5065211;28;20705;-86
2022/06/19 01:40:00;;;;;;;11.77;3.03;;;19.40;93.90;;;;;;5064911;28;20219;-85
2022/06/19 01:42:28;;;;;;;11.03;2.83;;;19.40;94.00;;;;;;5065952;28;20177;-85
2022/06/19 01:44:54;;;;;;;9.80;2.93;;;19.40;94.30;;;;;;5064965;28;20180;-85
2022/06/19 01:47:23;;;;;;;18.00;3.00;;;19.30;94.20;;;;;;5064733;28;20275;-85
2022/06/19 01:49:52;;;;;;;18.03;3.40;;;19.30;94.20;;;;;;5065487;28;20270;-86
2022/06/19 01:52:18;;;;;;;10.37;2.90;;;19.30;94.50;;;;;;5065605;28;20184;-86
2022/06/19 01:55:01;;;;;;;20.67;3.53;;;19.30;94.30;;;;;;5066482;28;20177;-86
2022/06/19 01:57:28;;;;;;;15.03;3.70;;;19.10;95.00;;;;;;5065745;28;20207;-86
2022/06/19 01:59:54;;;;;;;11.57;3.00;;;19.20;94.70;;;;;;5064705;28;20256;-85
2022/06/19 02:02:20;;;;;;;19.60;4.13;;;18.90;94.80;;;;;;5065636;28;20184;-86
2022/06/19 02:04:47;;;;;;;11.67;3.40;;;;;;;;;;5065416;28;20179;-86
2022/06/19 02:07:18;;;;;;;13.03;3.10;;;19.10;95.90;;;;;;5067510;28;20185;-86
2022/06/19 02:09:46;;;;;;;19.93;3.70;;;18.90;95.10;;;;;;5065061;28;20210;-86
2022/06/19 02:12:12;;;;;;;8.80;2.70;;;18.70;95.80;;;;;;5064532;28;20200;-86
2022/06/19 02:14:38;;;;;;;11.73;3.30;;;;;;;;;;5063113;28;20668;-85
2022/06/19 02:17:14;;;;;;;13.07;3.70;;;18.90;96.00;;;;;;5064563;28;20205;-85
2022/06/19 02:19:40;;;;;;;11.70;3.17;;;18.60;96.00;;;;;;5064419;28;20216;-86
2022/06/19 02:22:12;;;;;;;15.07;4.10;;;18.80;95.30;;;;;;5062894;28;20242;-86
2022/06/19 02:24:39;;;;;;;11.93;2.87;;;18.60;96.00;;;;;;5062719;28;20182;-86
2022/06/19 02:27:05;;;;;;;15.40;3.67;;;18.70;95.80;;;;;;5062911;28;20277;-85
2022/06/19 02:29:32;;;;;;;14.50;3.30;;;;;;;;;;5062880;28;20205;-86
2022/06/19 02:31:58;;;;;;;11.50;3.60;;;;;;;;;;5063705;28;20561;-86
2022/06/19 02:34:37;;;;;;;13.13;2.90;;;18.80;95.40;;;;;;5061798;28;20198;-87
2022/06/19 02:37:24;;;;;;;12.60;3.40;;;18.50;95.60;;;;;;5063642;28;20203;-86
2022/06/19 02:39:56;;;;;;;21.03;4.60;;;18.80;95.10;;;;;;5062494;28;20202;-86
2022/06/19 02:42:26;;;;;;;10.83;3.67;;;18.80;95.90;;;;;;5062139;28;20191;-86
2022/06/19 02:44:57;;;;;;;13.00;3.73;;;18.80;94.90;;;;;;5061410;28;20189;-86
2022/06/19 02:47:25;;;;;;;11.00;3.97;;;19.00;96.00;;;;;;5061976;28;20187;-86
2022/06/19 02:49:51;;;;;;;12.50;3.07;;;18.70;95.60;;;;;;5061892;28;20206;-86
2022/06/19 02:52:16;;;;;;;12.47;3.23;;;18.80;94.60;;;;;;5060735;28;20187;-85
2022/06/19 02:54:42;;;;;;;15.77;3.83;;;;;;;;;;5060901;28;20700;-85
2022/06/19 02:57:11;;;;;;;14.63;3.67;;;18.90;94.10;;;;;;5061835;28;20205;-85
2022/06/19 02:59:37;;;;;;;10.60;3.30;;;;;;;;;;5072477;28;20202;-86
2022/06/19 03:02:03;;;;;;;18.80;3.47;;;;;;;;;;5077232;28;20199;-84
2022/06/19 03:04:39;;;;;;;16.50;3.63;;;18.80;96.10;;;;;;5076605;28;20642;-85
2022/06/19 03:07:06;;;;;;;16.73;3.57;;;;;;;;;;5067769;28;20175;-85
2022/06/19 03:09:32;;;;;;;12.40;3.60;;;19.00;93.90;;;;;;5066685;28;20203;-85
2022/06/19 03:11:58;;;;;;;11.00;3.60;;;;;;;;;;5062392;28;20192;-86
2022/06/19 03:14:24;;;;;;;14.40;3.70;;;19.00;96.40;;;;;;5064452;28;20190;-85
2022/06/19 03:16:50;;;;;;;21.30;4.37;;;;;;;;;;5062677;28;20239;-85
2022/06/19 03:19:16;;;;;;;10.40;3.73;;;;;;;;;;5062725;28;20200;-85
2022/06/19 03:21:42;;;;;;;12.50;3.77;;;18.80;96.40;;;;;;5062533;28;20176;-86
2022/06/19 03:24:08;;;;;;;15.67;4.00;;;18.90;94.20;;;;;;5062971;28;20241;-85
2022/06/19 03:26:34;;;;;;;10.97;3.53;;;18.90;94.10;;;;;;5063158;28;20186;-85
2022/06/19 03:29:00;;;;;;;16.63;3.73;;;;;;;;;;5062161;28;20206;-86
2022/06/19 03:31:28;;;;;;;13.63;3.43;;;19.00;96.30;;;;;;5063775;28;20170;-86
2022/06/19 03:33:53;;;;;;;13.57;3.37;;;18.90;93.90;;;;;;5062561;28;20211;-86
2022/06/19 03:36:20;;;;;;;15.50;3.40;;;18.90;93.80;;;;;;5062635;28;20225;-86
2022/06/19 03:38:46;;;;;;;12.90;3.27;;;;;;;;;;5062562;28;20183;-86
2022/06/19 03:41:12;;;;;;;16.33;3.90;;;18.90;93.30;;;;;;5062870;28;20258;-86
2022/06/19 03:43:38;;;;;;;16.07;4.13;;;;;;;;;;5062906;28;20179;-86
2022/06/19 03:46:12;;;;;;;15.60;3.47;;;19.00;93.80;;;;;;5069995;28;20265;-86
2022/06/19 03:48:38;;;;;;;16.63;3.67;;;;;;;;;;5067418;28;20175;-86
2022/06/19 03:51:04;;;;;;;17.40;4.30;;;;;;;;;;5066079;28;20181;-85
2022/06/19 03:53:30;;;;;;;13.10;3.40;;;19.00;93.50;;;;;;5067564;28;20262;-85
2022/06/19 03:55:55;;;;;;;10.43;3.57;;;19.00;93.60;;;;;;5067680;28;20206;-85
2022/06/19 03:58:21;;;;;;;8.30;3.40;;;;;;;;;;5067877;28;20178;-85
2022/06/19 04:00:47;;;;;;;18.43;3.80;;;19.00;93.30;;;;;;5067074;28;20648;-86
2022/06/19 04:03:13;;;;;;;24.10;3.57;;;19.00;93.30;;;;;;5068533;28;20183;-86
2022/06/19 04:05:38;;;;;;;12.83;3.30;;;18.90;95.50;;;;;;5067480;28;20280;-86
2022/06/19 04:08:04;;;;;;;14.70;3.83;;;19.10;92.70;;;;;;5066620;28;20634;-86
2022/06/19 04:10:30;;;;;;;14.50;3.33;;;;;;;;;;5064963;28;20224;-85
2022/06/19 04:12:56;;;;;;;14.50;3.57;;;19.20;95.00;;;;;;5065768;28;20184;-85
2022/06/19 04:15:22;;;;;;;14.83;3.90;;;;;;;;;;5066033;28;20280;-85
2022/06/19 04:17:48;;;;;;;16.50;3.67;;;;;;;;;;5067134;28;20212;-86
2022/06/19 04:20:14;;;;;;;15.00;3.50;;;19.30;95.30;;;;;;5066119;28;20204;-86
2022/06/19 04:22:40;;;;;;;17.83;3.40;;;;;;;;;;5066185;28;20181;-86
2022/06/19 04:25:13;;;;;;;10.67;3.80;;;19.40;93.10;;;;;;5067948;28;20173;-86
2022/06/19 04:27:40;;;;;;;14.70;4.30;;;19.20;94.90;;;;;;5066984;28;20181;-86
2022/06/19 04:30:07;;;;;;;15.87;3.17;;;19.40;92.80;;;;;;5068631;28;20580;-86
2022/06/19 04:32:32;;;;;;;18.77;3.57;;;19.40;93.00;;;;;;5070542;28;20180;-86
2022/06/19 04:34:58;;;;;;;18.57;3.60;;;19.60;95.00;;;;;;5077680;28;20191;-85
2022/06/19 04:37:23;;;;;;;11.93;3.43;;;19.50;92.60;;;;;;5078017;28;20215;-85
2022/06/19 04:39:49;;;;;;;11.10;2.97;;;19.60;92.60;;;;;;5068814;28;20189;-86
2022/06/19 04:42:15;;;;;;;15.20;3.27;;;;;;;;;;5064368;28;20189;-86
2022/06/19 04:44:41;;;;;;;17.63;4.00;;;19.70;92.10;;;;;;5063484;28;20173;-86
2022/06/19 04:47:06;;;;;;;14.67;3.60;;;19.90;94.80;;;;;;5063070;28;20182;-85
2022/06/19 04:49:33;;;;;;;19.90;3.80;;;;;;;;;;5064574;28;20272;-86
2022/06/19 04:51:59;;;;;;;13.93;3.60;;;;;;;;;;5063101;28;20178;-86
2022/06/19 04:54:25;;;;;;;11.90;3.27;;;;;;;;;;5059856;28;20210;-85
2022/06/19 04:56:50;;;;;;;13.20;3.43;;;20.10;95.10;;;;;;5059584;28;20208;-85
2022/06/19 04:59:16;;;;;;;14.30;4.00;;;;;;;;;;5058823;28;20201;-86
2022/06/19 05:01:42;;;;;;;13.93;3.50;;;;;;;;;;5060535;28;20173;-85
2022/06/19 05:04:10;;;;;;;13.90;3.10;;;20.10;94.90;;;;;;5062598;28;20173;-85
2022/06/19 05:06:36;;;;;;;15.47;3.40;;;20.30;92.50;;;;;;5074120;28;20184;-86
2022/06/19 05:09:02;;;;;;;22.50;3.43;;;20.40;92.20;;;;;;5078714;28;20194;-86
2022/06/19 05:11:31;;;;;;;12.30;3.60;;;20.30;92.50;;;;;;5062226;28;20178;-86
2022/06/19 05:13:57;;;;;;;20.27;3.37;;;20.40;92.30;;;;;;5060084;28;20255;-87
2022/06/19 05:16:24;;;;;;;10.43;3.20;;;20.50;92.00;;;;;;5060213;28;20675;-86
2022/06/19 05:18:53;;;;;;;21.17;3.80;;;20.60;91.60;;;;;;5061488;28;20173;-86
2022/06/19 05:21:19;;;;;;;13.03;3.27;;;20.60;91.60;;;;;;5059667;28;20172;-86
2022/06/19 05:23:47;;;;;;;10.20;3.23;;;20.70;91.50;;;;;;5062010;28;20170;-86
2022/06/19 05:26:33;;;;;;;12.77;3.00;;;20.70;91.50;;;;;;5061464;28;20188;-86
2022/06/19 05:29:00;;;;;;;17.93;3.83;;;20.90;91.40;;;;;;5061303;28;20197;-86
2022/06/19 05:31:27;;;;;;;24.70;4.27;;;20.90;92.80;;;;;;5063577;28;20193;-86
2022/06/19 05:33:53;;;;;;;11.77;3.13;;;21.00;91.20;;;;;;5061932;28;20178;-87
2022/06/19 05:36:20;;;;;;;15.63;4.20;;;;;;;;;;5061966;28;20586;-86
2022/06/19 05:38:45;;;;;;;14.20;3.70;;;21.00;92.00;;;;;;5062405;28;20208;-86
2022/06/19 05:41:12;;;;;;;10.30;3.50;;;;;;;;;;5061739;28;20174;-86
2022/06/19 05:43:38;;;;;;;14.83;3.33;;;;;;;;;;5061608;28;20185;-86
2022/06/19 05:46:15;;;;;;;14.00;3.37;;;21.50;92.10;;;;;;5066669;28;20174;-86
2022/06/19 05:48:41;;;;;;;15.33;3.53;;;21.70;92.20;;;;;;5062735;28;20586;-86
2022/06/19 05:51:17;;;;;;;17.57;3.53;;;21.60;90.50;;;;;;5061577;28;20185;-86
2022/06/19 05:53:46;;;;;;;19.67;3.33;;;21.70;90.50;;;;;;5061979;28;20276;-86
2022/06/19 05:56:12;;;;;;;14.57;3.87;;;;;;;;;;5061647;28;20683;-87
2022/06/19 05:58:39;;;;;;;13.47;2.90;;;;;;;;;;5063324;28;20181;-86
2022/06/19 06:01:05;;;;;;;15.33;4.13;;;;;;;;;;5062565;28;20173;-86
2022/06/19 06:03:32;;;;;;;20.87;3.60;;;;;;;;;;5063202;28;20260;-86
2022/06/19 06:06:06;;;;;;;16.77;3.20;;;22.20;92.70;;;;;;5061500;28;20235;-87
2022/06/19 06:08:35;;;;;;;13.10;3.63;;;22.30;92.90;;;;;;5077331;28;20185;-85
2022/06/19 06:11:01;;;;;;;16.43;3.60;;;22.20;90.80;;;;;;5075724;28;20266;-86
2022/06/19 06:13:29;;;;;;;12.77;3.80;;;;;;;;;;5059895;28;20225;-85
2022/06/19 06:15:55;;;;;;;15.37;3.83;;;;;;;;;;5059157;28;20198;-86
2022/06/19 06:18:22;;;;;;;16.47;4.20;;;;;;;;;;5059997;28;20569;-85
2022/06/19 06:21:00;;;;;;;14.33;4.30;;;22.50;91.50;;;;;;5058884;28;20666;-86
2022/06/19 06:23:27;;;;;;;12.87;3.67;;;22.60;91.50;;;;;;5059835;28;20205;-86
2022/06/19 06:26:03;;;;;;;15.60;3.80;;;22.60;91.90;;;;;;5059279;28;20188;-87
2022/06/19 06:28:30;;;;;;;20.07;4.03;;;22.70;92.10;;;;;;5059346;28;20216;-86
2022/06/19 06:30:56;;;;;;;11.83;3.70;;;22.90;91.90;;;;;;5060117;28;20273;-86
2022/06/19 06:33:22;;;;;;;11.67;2.97;;;22.90;92.20;;;;;;5059953;28;20544;-86
2022/06/19 06:35:48;;;;;;;11.97;3.00;;;;;;;;;;5059339;28;20174;-85
2022/06/19 06:38:14;;;;;;;16.87;4.37;;;;;;;;;;5059706;28;20265;-86
2022/06/19 06:40:40;;;;;;;19.80;3.77;;;23.50;94.20;;;;;;5059129;28;20574;-86
2022/06/19 06:43:06;;;;;;;16.07;4.40;;;23.40;92.10;;;;;;5061216;28;20179;-85
2022/06/19 06:45:32;;;;;;;17.67;4.23;;;;;;;;;;5062971;28;20175;-85
2022/06/19 06:47:58;;;;;;;15.97;4.10;;;;;;;;;;5059571;28;20188;-86
2022/06/19 06:50:24;;;;;;;10.07;3.40;;;;;;;;;;5059212;28;20605;-86
2022/06/19 06:52:50;;;;;;;12.70;3.87;;;;;;;;;;5061326;28;20202;-86
2022/06/19 06:55:16;;;;;;;12.47;3.80;;;;;;;;;;5058367;28;20255;-86
2022/06/19 06:57:42;;;;;;;13.83;3.97;;;;;;;;;;5060368;28;20216;-85
2022/06/19 07:00:11;;;;;;;10.93;3.83;;;24.30;92.30;;;;;;5061141;28;20193;-85
2022/06/19 07:02:37;;;;;;;10.07;3.53;;;;;;;;;;5058616;28;20190;-84
2022/06/19 07:05:03;;;;;;;13.00;3.67;;;24.50;92.70;;;;;;5058168;28;20173;-84
2022/06/19 07:07:29;;;;;;;12.50;3.80;;;24.60;92.70;;;;;;5059777;28;20172;-84
2022/06/19 07:09:55;;;;;;;15.63;3.53;;;;;;;;;;5057724;28;20205;-84
2022/06/19 07:12:21;;;;;;;12.37;3.90;;;;;;;;;;5063425;28;20185;-83
2022/06/19 07:14:47;;;;;;;17.93;3.90;;;;;;;;;;5075827;28;20199;-83
2022/06/19 07:17:13;;;;;;;14.13;4.17;;;;;;;;;;5070592;28;20202;-85
2022/06/19 07:19:39;;;;;;;12.57;4.23;;;;;;;;;;5061865;28;20240;-85
2022/06/19 07:22:05;;;;;;;19.10;4.03;;;;;;;;;;5062918;28;20185;-85
2022/06/19 07:24:31;;;;;;;13.00;4.77;;;;;;;;;;5062138;28;20539;-84
2022/06/19 07:26:57;;;;;;;14.70;3.80;;;25.90;90.00;;;;;;5062056;28;20178;-85
2022/06/19 07:29:23;;;;;;;15.80;3.90;;;;;;;;;;5063187;28;20302;-85
2022/06/19 07:31:49;;;;;;;11.70;3.57;;;;;;;;;;5063471;28;20184;-86
2022/06/19 07:34:15;;;;;;;11.33;3.40;;;;;;;;;;5063262;28;20211;-85
2022/06/19 07:36:41;;;;;;;15.87;3.83;;;;;;;;;;5063428;28;20216;-84
2022/06/19 07:39:06;;;;;;;12.97;4.30;;;26.90;87.30;;;;;;5063697;28;20193;-84
2022/06/19 07:41:32;;;;;;;18.47;4.03;;;26.90;87.30;;;;;;5074159;28;20169;-82
2022/06/19 07:43:58;;;;;;;16.03;3.60;;;27.00;86.00;;;;;;5073529;28;20169;-83
2022/06/19 07:46:24;;;;;;;14.93;3.80;;;;;;;;;;5061283;28;20182;-84
2022/06/19 07:51:35;;;;;;;15.57;4.10;;;27.40;87.50;;;;;;5061716;28;20191;-84
2022/06/19 07:54:01;;;;;;;14.47;4.50;;;27.40;87.60;;;;;;5059950;28;20186;-84
2022/06/19 07:56:28;;;;;;;14.77;4.60;;;27.60;84.70;;;;;;5059501;28;20210;-83
2022/06/19 07:58:54;;;;;;;14.73;3.90;;;27.70;82.40;;;;;;5061556;28;20551;-83
2022/06/19 08:01:20;;;;;;;14.43;3.67;;;;;;;;;;5059935;28;20176;-84
2022/06/19 08:03:46;;;;;;;13.10;3.60;;;;;;;;;;5060134;28;20187;-84
2022/06/19 08:06:14;;;;;;;8.00;3.57;;;;;;;;;;5060397;28;20691;-84
2022/06/19 08:08:41;;;;;;;11.93;4.03;;;28.00;78.80;;;;;;5059716;28;20179;-83
2022/06/19 08:11:07;;;;;;;15.13;3.80;;;;;;;;;;5060900;28;20180;-84
2022/06/19 08:13:33;;;;;;;10.97;4.27;;;28.20;78.90;;;;;;5060827;28;20183;-84
2022/06/19 08:16:06;;;;;;;13.57;4.50;;;28.20;78.30;;;;;;5063378;28;20307;-84
2022/06/19 08:18:32;;;;;;;11.40;3.57;;;28.30;75.70;;;;;;5062279;28;20235;-84
2022/06/19 08:20:59;;;;;;;13.33;3.77;;;28.30;75.70;;;;;;5063342;28;20257;-84
2022/06/19 08:23:25;;;;;;;11.10;3.60;;;;;;;;;;5060142;28;20176;-84
2022/06/19 08:25:51;;;;;;;15.00;3.47;;;;;;;;;;5059561;28;20177;-84
2022/06/19 08:28:22;;;;;;;11.90;3.73;;;28.50;74.80;;;;;;5059985;28;20528;-84
2022/06/19 08:30:48;;;;;;;14.57;3.73;;;;;;;;;;5061167;28;20203;-84
2022/06/19 08:33:14;;;;;;;8.10;2.90;;;28.70;76.10;;;;;;5061865;28;20176;-84
2022/06/19 08:35:45;;;;;;;13.77;3.67;;;28.90;73.60;;;;;;5064357;28;20514;-85
2022/06/19 08:38:22;;;;;;;15.73;4.10;;;29.00;72.90;;;;;;5063182;28;20182;-84
2022/06/19 08:41:09;;;;;;;10.23;3.50;;;29.20;80.50;;;;;;5062627;28;20235;-84
2022/06/19 08:44:04;;;;;;;10.13;3.43;;;29.10;73.60;;;;;;5063937;28;20170;-84
2022/06/19 08:47:08;;;;;;;12.57;3.40;;;29.30;73.60;;;;;;5062632;28;20177;-84
2022/06/19 08:49:42;;;;;;;14.33;3.53;;;29.40;70.70;;;;;;5063083;28;20208;-84
2022/06/19 08:52:37;;;;;;;14.73;3.60;;;29.40;72.10;;;;;;5064659;28;20174;-84
2022/06/19 08:55:21;;;;;;;11.07;3.50;;;29.50;72.70;;;;;;5063485;28;20187;-85
2022/06/19 08:58:19;;;;;;;11.47;4.07;;;29.60;74.00;;;;;;5063998;28;20209;-85
2022/06/19 09:01:02;;;;;;;11.93;3.30;;;29.70;70.50;;;;;;5065573;28;20206;-85
2022/06/19 09:03:28;;;;;;;10.20;3.73;;;;;;;;;;5065898;28;20225;-85
2022/06/19 09:06:22;;;;;;;12.23;3.23;;;29.90;72.60;;;;;;5066091;28;20208;-85
2022/06/19 09:09:07;;;;;;;13.03;3.50;;;30.00;78.70;;;;;;5063993;28;20182;-85
2022/06/19 09:11:59;;;;;;;9.93;3.43;;;30.10;67.00;;;;;;5067320;28;20178;-85
2022/06/19 09:14:50;;;;;;;12.63;3.90;;;30.10;67.10;;;;;;5073038;28;20190;-84
2022/06/19 09:17:18;;;;;;;17.20;3.67;;;30.20;71.10;;;;;;5069897;28;20240;-83
2022/06/19 09:19:59;;;;;;;11.60;3.17;;;30.40;66.40;;;;;;5072131;28;20208;-83
2022/06/19 09:23:09;;;;;;;9.90;3.63;;;30.50;68.10;;;;;;5080972;28;20173;-85
2022/06/19 09:25:58;;;;;;;11.20;3.50;;;30.70;67.60;;;;;;5063872;28;20210;-85
2022/06/19 09:28:30;;;;;;;16.43;3.47;;;30.80;64.50;;;;;;5060860;28;20183;-84
2022/06/19 09:31:20;;;;;;;15.67;3.70;;;30.80;63.30;;;;;;5061430;28;20194;-84
2022/06/19 09:34:05;;;;;;;11.80;3.70;;;30.90;73.10;;;;;;5062456;28;20662;-85
2022/06/19 09:36:56;;;;;;;22.23;3.90;;;31.00;68.40;;;;;;5062442;28;20666;-84
2022/06/19 09:39:47;;;;;;;12.20;3.23;;;31.20;63.90;;;;;;5057324;28;20202;-85
2022/06/19 09:42:38;;;;;;;10.73;3.03;;;31.30;68.70;;;;;;5061964;28;20169;-84
2022/06/19 09:45:26;;;;;;;9.83;3.50;;;31.40;64.20;;;;;;5061788;28;20174;-85
2022/06/19 09:48:03;;;;;;;13.50;3.50;;;31.50;63.90;;;;;;5059831;28;20712;-85
2022/06/19 09:51:11;;;;;;;10.30;3.07;;;31.70;62.10;;;;;;5061713;28;20281;-85
2022/06/19 09:53:39;;;;;;;15.93;4.33;;;31.80;61.20;;;;;;5060873;28;20221;-86
2022/06/19 09:56:23;;;;;;;9.53;3.33;;;32.10;62.20;;;;;;5061533;28;20230;-85
2022/06/19 09:59:14;;;;;;;11.43;3.37;;;32.10;58.20;;;;;;5061083;28;20207;-86
2022/06/19 10:01:43;;;;;;;14.80;3.77;;;32.20;57.90;;;;;;5061240;28;20207;-85
2022/06/19 10:04:38;;;;;;;15.10;3.50;;;32.50;61.40;;;;;;5062951;28;20698;-85
2022/06/19 10:07:15;;;;;;;17.00;4.47;;;32.40;62.90;;;;;;5060521;28;20189;-86
2022/06/19 10:09:52;;;;;;;9.83;4.33;;;32.60;62.10;;;;;;5060410;28;20205;-85
2022/06/19 10:12:38;;;;;;;16.40;3.67;;;32.60;60.40;;;;;;5061092;28;20243;-86
2022/06/19 10:15:11;;;;;;;9.50;3.60;;;32.60;60.20;;;;;;5061919;28;20280;-86
2022/06/19 10:17:53;;;;;;;11.70;3.37;;;32.70;66.40;;;;;;5062114;28;20206;-86
2022/06/19 10:20:25;;;;;;;7.90;3.10;;;32.80;56.00;;;;;;5061963;28;20257;-87
2022/06/19 10:23:16;;;;;;;9.70;2.97;;;32.90;56.10;;;;;;5062253;28;20198;-86
2022/06/19 10:25:53;;;;;;;13.53;3.33;;;33.00;58.40;;;;;;5063773;28;20172;-86
2022/06/19 10:28:22;;;;;;;14.00;3.70;;;33.10;56.50;;;;;;5061720;28;20179;-86
2022/06/19 10:31:29;;;;;;;16.43;3.43;;;33.10;59.60;;;;;;5062380;28;20195;-86
2022/06/19 10:34:11;;;;;;;12.33;3.03;;;33.30;61.90;;;;;;5063884;28;20159;-86
2022/06/19 10:36:55;;;;;;;11.57;3.23;;;33.40;55.70;;;;;;5062669;28;20214;-86
2022/06/19 10:39:45;;;;;;;16.43;3.27;;;33.70;64.10;;;;;;5062909;28;20194;-86
2022/06/19 10:42:46;;;;;;;11.77;3.90;;;33.80;62.70;;;;;;5065069;28;20177;-86
2022/06/19 10:45:20;;;;;;;16.37;3.87;;;34.00;62.90;;;;;;5066042;28;20175;-85
2022/06/19 10:47:46;;;;;;;14.13;3.70;;;;;;;;;;5070964;28;20186;-85
2022/06/19 10:50:36;;;;;;;14.63;3.67;;;34.20;67.00;;;;;;5060131;28;20208;-86
2022/06/19 10:53:02;;;;;;;10.30;2.87;;;;;;;;;;5060176;28;20174;-86
2022/06/19 10:55:42;;;;;;;13.73;3.40;;;34.30;59.70;;;;;;5058651;28;20177;-85
2022/06/19 10:58:19;;;;;;;24.10;3.60;;;34.30;55.60;;;;;;5056772;28;20212;-85
2022/06/19 11:00:51;;;;;;;20.70;3.63;;;34.50;54.20;;;;;;5056944;28;20220;-85
2022/06/19 11:06:17;;;;;;;10.47;3.50;;;34.60;56.20;;;;;;5057611;28;20185;-85
2022/06/19 11:08:46;;;;;;;11.87;3.47;;;35.00;59.50;;;;;;5057117;28;20175;-85
2022/06/19 11:11:17;;;;;;;7.23;3.30;;;35.00;58.90;;;;;;5055653;28;20190;-85
2022/06/19 11:14:01;;;;;;;14.10;3.43;;;35.20;55.90;;;;;;5056635;28;20528;-85
2022/06/19 11:16:29;;;;;;;13.00;3.37;;;35.40;55.40;;;;;;5055397;28;20237;-85
2022/06/19 11:18:57;;;;;;;9.17;2.97;;;;;;;;;;5056568;28;20192;-85
2022/06/19 11:21:27;;;;;;;16.87;3.67;;;35.50;51.00;;;;;;5054699;28;20176;-85
2022/06/19 11:23:57;;;;;;;14.13;3.20;;;35.50;57.50;;;;;;5054710;28;20174;-84
2022/06/19 11:26:36;;;;;;;12.93;3.20;;;35.50;47.80;;;;;;5072173;28;20168;-85
2022/06/19 11:29:13;;;;;;;10.57;2.93;;;35.50;54.50;;;;;;5078957;28;20206;-86
2022/06/19 11:32:14;;;;;;;12.53;3.67;;;35.60;53.90;;;;;;5062796;28;20245;-86
2022/06/19 11:34:54;;;;;;;13.70;3.13;;;36.00;54.50;;;;;;5059807;28;20190;-86
2022/06/19 11:37:48;;;;;;;9.83;3.13;;;36.40;57.90;;;;;;5060060;28;20255;-86
2022/06/19 11:40:18;;;;;;;10.57;3.50;;;36.60;51.30;;;;;;5060603;28;20558;-86
2022/06/19 11:42:50;;;;;;;9.83;3.13;;;36.70;52.40;;;;;;5061468;28;20177;-86
2022/06/19 11:45:15;;;;;;;12.27;3.73;;;36.60;49.60;;;;;;5060804;28;20170;-86
2022/06/19 11:47:45;;;;;;;10.10;3.27;;;36.60;48.40;;;;;;5060764;28;20262;-84
2022/06/19 11:50:21;;;;;;;15.17;3.93;;;36.60;49.20;;;;;;5057065;28;20201;-85
2022/06/19 11:53:11;;;;;;;12.63;3.20;;;36.60;48.50;;;;;;5078215;28;20182;-84
2022/06/19 11:55:45;;;;;;;17.50;3.43;;;36.70;47.20;;;;;;5078490;28;20260;-85
2022/06/19 11:58:36;;;;;;;13.97;3.80;;;36.60;47.10;;;;;;5084684;28;20225;-85
2022/06/19 12:01:06;;;;;;;13.50;3.70;;;36.60;49.30;;;;;;5078338;28;20172;-87
2022/06/19 12:03:37;;;;;;;10.60;3.50;;;36.70;51.40;;;;;;5078865;28;20197;-87
2022/06/19 12:06:07;;;;;;;7.57;3.10;;;36.80;51.10;;;;;;5083563;28;20196;-87
2022/06/19 12:08:59;;;;;;;11.40;3.63;;;37.20;52.90;;;;;;5085560;28;20162;-88
2022/06/19 12:11:40;;;;;;;8.90;3.30;;;37.10;49.90;;;;;;5084978;28;20652;-87
2022/06/19 12:14:09;;;;;;;13.17;3.57;;;37.20;52.70;;;;;;5088233;28;20191;-86
2022/06/19 12:16:35;;;;;;;14.03;3.70;;;37.20;48.70;;;;;;5090895;28;20202;-86
2022/06/19 12:19:24;;;;;;;14.07;3.67;;;37.30;50.20;;;;;;5097769;28;20177;-86
2022/06/19 12:21:59;;;;;;;11.30;3.20;;;37.40;52.80;;;;;;5095303;28;20173;-87
2022/06/19 12:24:42;;;;;;;10.50;3.67;;;37.40;50.70;;;;;;5081698;28;20186;-86
2022/06/19 12:27:15;;;;;;;16.63;3.40;;;37.40;48.60;;;;;;5081164;28;20164;-87
2022/06/19 12:29:54;;;;;;;11.37;3.60;;;37.30;51.80;;;;;;5081557;28;20204;-84
2022/06/19 12:32:24;;;;;;;11.50;3.87;;;37.20;51.00;;;;;;5083749;28;20214;-87
2022/06/19 12:34:53;;;;;;;12.27;3.67;;;37.20;48.50;;;;;;5080474;28;20184;-86
2022/06/19 12:37:26;;;;;;;17.77;3.73;;;37.30;45.70;;;;;;5078878;28;20204;-86
2022/06/19 12:39:54;;;;;;;14.80;3.50;;;37.10;47.40;;;;;;5081525;28;20185;-87
2022/06/19 12:42:28;;;;;;;13.53;3.77;;;37.00;48.90;;;;;;5080099;28;20171;-85
2022/06/19 12:45:49;;;;;;;12.00;3.40;;;37.10;47.80;;;;;;5084209;28;20608;-84
2022/06/19 12:48:27;;;;;;;13.90;3.70;;;37.30;49.10;;;;;;5073136;28;20190;-85
2022/06/19 12:50:58;;;;;;;11.60;3.27;;;37.20;48.50;;;;;;5080116;28;20227;-85
2022/06/19 12:54:01;;;;;;;10.77;3.53;;;37.10;49.50;;;;;;5082874;28;20175;-84
2022/06/19 12:56:59;;;;;;;12.17;3.70;;;37.10;49.30;;;;;;5081735;28;20663;-84
2022/06/19 12:59:51;;;;;;;13.80;2.93;;;37.10;49.80;;;;;;5080936;28;20209;-84
2022/06/19 13:02:36;;;;;;;10.87;3.80;;;37.30;45.40;;;;;;5080206;28;20167;-85
2022/06/19 13:05:13;;;;;;;17.93;3.30;;;37.30;46.20;;;;;;5080090;28;20261;-84
2022/06/19 13:07:39;;;;;;;9.47;3.30;;;37.30;45.10;;;;;;5081411;28;20256;-84
2022/06/19 13:10:35;;;;;;;15.73;3.67;;;37.30;46.90;;;;;;5079635;28;20568;-84
2022/06/19 13:13:13;;;;;;;12.43;3.50;;;37.30;47.70;;;;;;5066896;28;20705;-84
2022/06/19 13:15:56;;;;;;;11.63;3.40;;;37.30;46.50;;;;;;5082537;28;20227;-85
2022/06/19 13:18:25;;;;;;;9.00;3.57;;;37.50;46.40;;;;;;5080224;28;20175;-86
2022/06/19 13:21:05;;;;;;;11.87;3.73;;;37.60;52.60;;;;;;5080789;28;20257;-86
2022/06/19 13:23:59;;;;;;;12.17;3.20;;;37.90;47.60;;;;;;5081186;28;20236;-86
2022/06/19 13:27:12;;;;;;;10.57;3.20;;;37.70;47.80;;;;;;5077666;28;20247;-86
2022/06/19 13:29:41;;;;;;;9.40;3.60;;;37.80;49.30;;;;;;5077319;28;20267;-84
2022/06/19 13:32:18;;;;;;;9.97;3.60;;;37.80;47.80;;;;;;5080294;28;20188;-83
2022/06/19 13:35:09;;;;;;;10.77;3.40;;;37.70;50.70;;;;;;5096199;28;20167;-85
2022/06/19 13:37:57;;;;;;;14.80;3.90;;;37.80;45.90;;;;;;5094101;28;20262;-84